createdAt,value
2022-09-15T00:01:11.857Z,100589.44
2022-09-15T00:03:40.499Z,100595.81
2022-09-15T00:06:09.473Z,100588.00
2022-09-15T00:08:37.027Z,100592.50
2022-09-15T00:11:22.901Z,100594.34
2022-09-15T00:13:51.935Z,100595.31
2022-09-15T00:16:22.114Z,100589.34
2022-09-15T00:18:49.293Z,100585.06
2022-09-15T00:21:21.445Z,100585.09
2022-09-15T00:23:49.816Z,100597.56
2022-09-15T00:26:22.674Z,100599.28
2022-09-15T00:28:50.556Z,100605.41
2022-09-15T00:31:22.477Z,100603.41
2022-09-15T00:33:52.816Z,100601.53
2022-09-15T00:36:21.556Z,100596.88
2022-09-15T00:38:49.319Z,100594.03
2022-09-15T00:41:20.437Z,100592.09
2022-09-15T00:43:50.489Z,100598.91
2022-09-15T00:46:30.888Z,100602.25
2022-09-15T00:49:19.200Z,100594.13
2022-09-15T00:52:08.979Z,100592.22
2022-09-15T00:54:44.097Z,100593.78
2022-09-15T00:57:23.480Z,100596.16
2022-09-15T00:59:52.963Z,100591.63
2022-09-15T01:02:26.918Z,100589.69
2022-09-15T01:04:58.596Z,100589.53
2022-09-15T01:07:56.100Z,100592.84
2022-09-15T01:10:37.856Z,100596.16
2022-09-15T01:13:11.875Z,100594.34
2022-09-15T01:15:47.793Z,100578.38
2022-09-15T01:18:33.112Z,100580.09
2022-09-15T01:21:54.619Z,100584.31
2022-09-15T01:24:57.191Z,100586.03
2022-09-15T01:28:30.130Z,100582.47
2022-09-15T01:31:35.214Z,100579.81
2022-09-15T01:34:17.404Z,100581.47
2022-09-15T01:37:05.894Z,100584.91
2022-09-15T01:39:41.437Z,100598.06
2022-09-15T01:42:14.730Z,100606.00
2022-09-15T01:44:57.712Z,100596.34
2022-09-15T01:47:29.413Z,100593.13
2022-09-15T01:50:15.357Z,100599.19
2022-09-15T01:52:48.918Z,100601.84
2022-09-15T01:55:30.190Z,100606.31
2022-09-15T01:57:58.889Z,100599.34
2022-09-15T02:00:25.991Z,100604.72
2022-09-15T02:03:04.233Z,100606.34
2022-09-15T02:05:50.155Z,100590.53
2022-09-15T02:08:57.421Z,100599.19
2022-09-15T02:11:30.277Z,100592.91
2022-09-15T02:14:28.307Z,100590.97
2022-09-15T02:16:56.039Z,100597.84
2022-09-15T02:19:38.936Z,100596.84
2022-09-15T02:22:23.281Z,100593.19
2022-09-15T02:25:03.039Z,100586.94
2022-09-15T02:27:37.431Z,100583.44
2022-09-15T02:30:13.206Z,100586.88
2022-09-15T02:32:51.703Z,100588.63
2022-09-15T02:35:19.075Z,100586.72
2022-09-15T02:37:47.166Z,100585.88
2022-09-15T02:40:14.372Z,100590.25
2022-09-15T02:42:51.142Z,100585.78
2022-09-15T02:45:20.403Z,100590.34
2022-09-15T02:47:47.355Z,100579.88
2022-09-15T02:50:14.439Z,100591.41
2022-09-15T02:52:41.504Z,100593.34
2022-09-15T02:55:10.211Z,100584.69
2022-09-15T02:57:37.391Z,100582.09
2022-09-15T03:00:13.240Z,100592.75
2022-09-15T03:02:43.093Z,100601.63
2022-09-15T03:05:10.458Z,100605.34
2022-09-15T03:07:38.522Z,100604.59
2022-09-15T03:10:08.628Z,100609.09
2022-09-15T03:12:40.866Z,100606.56
2022-09-15T03:15:11.068Z,100614.50
2022-09-15T03:17:41.645Z,100611.06
2022-09-15T03:20:11.772Z,100608.50
2022-09-15T03:22:39.182Z,100606.91
2022-09-15T03:25:07.304Z,100617.66
2022-09-15T03:27:35.604Z,100617.91
2022-09-15T03:30:05.152Z,100619.00
2022-09-15T03:32:32.339Z,100621.69
2022-09-15T03:34:59.842Z,100624.31
2022-09-15T03:37:27.441Z,100625.13
2022-09-15T03:39:54.409Z,100625.78
2022-09-15T03:42:21.965Z,100627.38
2022-09-15T03:44:48.859Z,100627.19
2022-09-15T03:47:15.874Z,100634.19
2022-09-15T03:49:42.971Z,100635.00
2022-09-15T03:52:10.299Z,100627.91
2022-09-15T03:54:37.261Z,100629.59
2022-09-15T03:57:04.597Z,100629.59
2022-09-15T03:59:31.567Z,100632.13
2022-09-15T04:01:58.591Z,100632.03
2022-09-15T04:04:25.608Z,100624.19
2022-09-15T04:06:53.182Z,100624.19
2022-09-15T04:09:21.399Z,100614.50
2022-09-15T04:11:48.435Z,100623.47
2022-09-15T04:14:15.932Z,100614.69
2022-09-15T04:16:42.895Z,100620.03
2022-09-15T04:19:09.911Z,100613.94
2022-09-15T04:21:37.896Z,100614.81
2022-09-15T04:24:05.887Z,100617.50
2022-09-15T04:26:36.921Z,100620.09
2022-09-15T04:29:13.593Z,100621.75
2022-09-15T04:31:40.807Z,100617.25
2022-09-15T04:34:08.004Z,100628.47
2022-09-15T04:36:35.017Z,100620.47
2022-09-15T04:39:02.096Z,100616.81
2022-09-15T04:41:29.202Z,100614.09
2022-09-15T04:43:56.368Z,100611.44
2022-09-15T04:46:26.148Z,100614.88
2022-09-15T04:48:53.990Z,100614.78
2022-09-15T04:51:23.046Z,100613.03
2022-09-15T04:53:51.977Z,100610.28
2022-09-15T04:56:23.679Z,100613.81
2022-09-15T04:58:58.245Z,100612.09
2022-09-15T05:01:33.679Z,100619.97
2022-09-15T05:04:03.992Z,100615.53
2022-09-15T05:06:32.329Z,100625.19
2022-09-15T05:08:59.427Z,100630.56
2022-09-15T05:11:28.326Z,100623.50
2022-09-15T05:13:55.415Z,100626.19
2022-09-15T05:16:26.410Z,100621.75
2022-09-15T05:18:57.560Z,100618.41
2022-09-15T05:21:25.665Z,100623.53
2022-09-15T05:23:54.129Z,100621.69
2022-09-15T05:26:31.714Z,100618.09
2022-09-15T05:28:58.745Z,100625.97
2022-09-15T05:31:32.027Z,100618.81
2022-09-15T05:34:02.823Z,100606.38
2022-09-15T05:36:30.402Z,100608.94
2022-09-15T05:38:58.995Z,100609.81
2022-09-15T05:41:28.180Z,100623.81
2022-09-15T05:43:57.343Z,100637.06
2022-09-15T05:46:27.247Z,100652.03
2022-09-15T05:48:57.904Z,100650.25
2022-09-15T05:51:25.176Z,100642.22
2022-09-15T05:53:52.419Z,100645.75
2022-09-15T05:56:20.331Z,100647.38
2022-09-15T05:58:49.141Z,100661.47
2022-09-15T06:01:22.844Z,100662.19
2022-09-15T06:03:50.248Z,100658.56
2022-09-15T06:06:18.057Z,100663.78
2022-09-15T06:08:51.906Z,100651.47
2022-09-15T06:11:24.825Z,100656.63
2022-09-15T06:13:52.122Z,100667.78
2022-09-15T06:16:23.461Z,100658.84
2022-09-15T06:18:53.306Z,100670.84
2022-09-15T06:21:27.227Z,100673.06
2022-09-15T06:23:56.852Z,100664.03
2022-09-15T06:26:24.605Z,100669.91
2022-09-15T06:28:58.055Z,100663.50
2022-09-15T06:31:27.973Z,100681.00
2022-09-15T06:33:57.625Z,100681.78
2022-09-15T06:36:30.299Z,100679.03
2022-09-15T06:38:58.690Z,100676.31
2022-09-15T06:41:32.955Z,100677.97
2022-09-15T06:44:14.124Z,100672.56
2022-09-15T06:46:41.007Z,100684.81
2022-09-15T06:49:07.972Z,100680.88
2022-09-15T06:51:36.161Z,100676.69
2022-09-15T06:54:04.644Z,100685.59
2022-09-15T06:56:37.229Z,100692.75
2022-09-15T06:59:05.562Z,100690.25
2022-09-15T07:01:33.227Z,100690.81
2022-09-15T07:04:05.808Z,100707.09
2022-09-15T07:06:33.941Z,100702.25
2022-09-15T07:09:02.435Z,100709.09
2022-09-15T07:11:30.016Z,100712.63
2022-09-15T07:13:57.269Z,100716.28
2022-09-15T07:16:27.840Z,100717.16
2022-09-15T07:18:57.175Z,100717.06
2022-09-15T07:21:24.632Z,100710.22
2022-09-15T07:23:52.253Z,100719.28
2022-09-15T07:26:23.995Z,100728.97
2022-09-15T07:28:58.773Z,100731.38
2022-09-15T07:31:29.930Z,100723.09
2022-09-15T07:33:59.141Z,100722.69
2022-09-15T07:36:26.232Z,100728.19
2022-09-15T07:38:53.510Z,100729.44
2022-09-15T07:41:25.449Z,100738.97
2022-09-15T07:43:56.187Z,100744.13
2022-09-15T07:46:26.159Z,100745.81
2022-09-15T07:48:57.950Z,100742.31
2022-09-15T07:51:26.270Z,100743.94
2022-09-15T07:53:54.326Z,100742.75
2022-09-15T07:56:23.839Z,100740.72
2022-09-15T07:58:51.347Z,100737.72
2022-09-15T08:01:22.418Z,100737.19
2022-09-15T08:03:52.663Z,100733.34
2022-09-15T08:06:25.138Z,100738.31
2022-09-15T08:08:56.331Z,100746.22
2022-09-15T08:11:26.619Z,100755.03
2022-09-15T08:13:53.801Z,100754.25
2022-09-15T08:16:24.136Z,100758.91
2022-09-15T08:18:55.292Z,100756.50
2022-09-15T08:21:27.597Z,100754.88
2022-09-15T08:23:59.383Z,100760.03
2022-09-15T08:26:29.352Z,100760.88
2022-09-15T08:28:57.863Z,100764.22
2022-09-15T08:31:25.302Z,100767.34
2022-09-15T08:33:55.514Z,100761.03
2022-09-15T08:36:24.475Z,100770.91
2022-09-15T08:38:51.491Z,100769.53
2022-09-15T08:41:40.204Z,100773.19
2022-09-15T08:44:22.803Z,100778.13
2022-09-15T08:46:58.944Z,100771.81
2022-09-15T08:49:51.101Z,100788.66
2022-09-15T08:52:38.700Z,100795.44
2022-09-15T08:55:33.647Z,100794.50
2022-09-15T08:58:00.962Z,100782.97
2022-09-15T09:00:30.377Z,100796.91
2022-09-15T09:03:14.492Z,100801.84
2022-09-15T09:06:03.340Z,100805.00
2022-09-15T09:08:56.350Z,100806.63
2022-09-15T09:11:56.482Z,100806.56
2022-09-15T09:15:00.988Z,100812.84
2022-09-15T09:17:59.069Z,100809.97
2022-09-15T09:20:47.699Z,100812.84
2022-09-15T09:23:23.862Z,100815.66
2022-09-15T09:25:52.876Z,100809.50
2022-09-15T09:28:35.163Z,100805.69
2022-09-15T09:31:07.546Z,100801.91
2022-09-15T09:33:49.728Z,100804.63
2022-09-15T09:36:17.142Z,100803.19
2022-09-15T09:38:48.173Z,100810.78
2022-09-15T09:41:23.303Z,100808.50
2022-09-15T09:43:55.986Z,100812.47
2022-09-15T09:46:23.129Z,100811.75
2022-09-15T09:49:05.012Z,100812.81
2022-09-15T09:51:49.033Z,100810.53
2022-09-15T09:54:16.207Z,100815.13
2022-09-15T09:56:45.366Z,100826.03
2022-09-15T09:59:41.673Z,100819.16
2022-09-15T10:02:11.857Z,100816.13
2022-09-15T10:04:41.933Z,100818.13
2022-09-15T10:07:09.560Z,100815.34
2022-09-15T10:09:39.027Z,100801.69
2022-09-15T10:12:16.154Z,100800.63
2022-09-15T10:14:45.446Z,100814.72
2022-09-15T10:17:20.206Z,100809.97
2022-09-15T10:19:58.332Z,100805.53
2022-09-15T10:22:40.876Z,100809.91
2022-09-15T10:25:19.672Z,100811.25
2022-09-15T10:28:09.613Z,100808.00
2022-09-15T10:30:38.556Z,100803.91
2022-09-15T10:33:27.027Z,100808.81
2022-09-15T10:36:03.319Z,100799.38
2022-09-15T10:39:14.016Z,100810.53
2022-09-15T10:42:04.482Z,100804.59
2022-09-15T10:44:59.994Z,100806.88
2022-09-15T10:48:07.069Z,100810.16
2022-09-15T10:51:34.191Z,100819.41
2022-09-15T10:54:24.652Z,100829.38
2022-09-15T10:57:45.311Z,100816.41
2022-09-15T11:01:12.366Z,100820.03
2022-09-15T11:03:47.868Z,100822.44
2022-09-15T11:06:34.175Z,100821.13
2022-09-15T11:09:31.997Z,100821.91
2022-09-15T11:12:25.875Z,100822.16
2022-09-15T11:15:50.488Z,100826.88
2022-09-15T11:18:48.136Z,100826.16
2022-09-15T11:21:28.523Z,100828.63
2022-09-15T11:24:48.328Z,100832.06
2022-09-15T11:27:31.320Z,100824.94
2022-09-15T11:30:20.138Z,100822.75
2022-09-15T11:33:15.019Z,100831.50
2022-09-15T11:35:46.568Z,100830.16
2022-09-15T11:38:35.711Z,100841.94
2022-09-15T11:41:10.675Z,100831.75
2022-09-15T11:43:55.382Z,100836.22
2022-09-15T11:47:22.929Z,100828.31
2022-09-15T11:50:10.982Z,100831.75
2022-09-15T11:52:53.100Z,100835.66
2022-09-15T11:55:55.047Z,100835.88
2022-09-15T11:58:37.698Z,100839.16
2022-09-15T12:01:10.731Z,100833.28
2022-09-15T12:03:43.294Z,100827.09
2022-09-15T12:06:55.164Z,100819.47
2022-09-15T12:09:22.866Z,100823.03
2022-09-15T12:11:59.346Z,100824.53
2022-09-15T12:14:37.119Z,100813.13
2022-09-15T12:17:08.004Z,100816.06
2022-09-15T12:19:53.681Z,100811.63
2022-09-15T12:22:52.074Z,100801.38
2022-09-15T12:25:40.777Z,100800.75
2022-09-15T12:28:38.389Z,100801.34
2022-09-15T12:31:24.876Z,100790.34
2022-09-15T12:33:56.242Z,100792.56
2022-09-15T12:36:44.036Z,100802.31
2022-09-15T12:39:26.715Z,100798.56
2022-09-15T12:42:08.767Z,100805.78
2022-09-15T12:45:12.351Z,100794.63
2022-09-15T12:47:49.101Z,100790.97
2022-09-15T12:50:28.868Z,100796.94
2022-09-15T12:53:23.049Z,100789.75
2022-09-15T12:55:58.939Z,100794.91
2022-09-15T12:58:49.658Z,100781.53
2022-09-15T13:01:23.123Z,100790.75
2022-09-15T13:03:50.205Z,100780.09
2022-09-15T13:06:31.712Z,100788.97
2022-09-15T13:09:05.562Z,100788.06
2022-09-15T13:11:38.625Z,100787.78
2022-09-15T13:14:08.297Z,100787.19
2022-09-15T13:16:41.468Z,100776.69
2022-09-15T13:19:33.083Z,100776.97
2022-09-15T13:22:12.338Z,100773.38
2022-09-15T13:25:15.598Z,100763.63
2022-09-15T13:27:52.011Z,100777.06
2022-09-15T13:31:00.929Z,100772.72
2022-09-15T13:40:51.084Z,100772.13
2022-09-15T13:43:53.476Z,100771.09
2022-09-15T13:46:41.543Z,100768.50
2022-09-15T13:49:48.738Z,100761.50
2022-09-15T13:52:20.767Z,100773.38
2022-09-15T13:55:19.317Z,100767.47
2022-09-15T14:00:49.451Z,100765.47
2022-09-15T14:03:25.609Z,100770.66
2022-09-15T14:05:55.456Z,100750.16
2022-09-15T14:08:32.421Z,100760.09
2022-09-15T14:11:08.588Z,100766.59
2022-09-15T14:13:46.481Z,100786.06
2022-09-15T14:16:33.850Z,100772.25
2022-09-15T14:19:04.743Z,100776.09
2022-09-15T14:21:34.803Z,100781.22
2022-09-15T14:24:20.229Z,100789.00
2022-09-15T14:26:48.556Z,100790.91
2022-09-15T14:29:26.672Z,100789.09
2022-09-15T14:32:01.308Z,100789.06
2022-09-15T14:34:35.426Z,100785.25
2022-09-15T14:37:08.226Z,100799.94
2022-09-15T14:39:37.693Z,100807.97
2022-09-15T14:42:32.418Z,100803.81
2022-09-15T14:48:17.095Z,100799.06
2022-09-15T14:50:57.896Z,100810.47
2022-09-15T14:53:28.155Z,100804.28
2022-09-15T14:56:18.959Z,100818.13
2022-09-15T14:59:10.543Z,100814.91
2022-09-15T15:02:32.437Z,100818.72
2022-09-15T15:05:30.731Z,100810.72
2022-09-15T15:07:58.252Z,100817.66
2022-09-15T15:10:35.618Z,100804.44
2022-09-15T15:13:12.167Z,100812.13
2022-09-15T15:15:39.604Z,100803.28
2022-09-15T15:18:46.932Z,100812.72
2022-09-15T15:21:37.273Z,100805.44
2022-09-15T15:24:20.093Z,100807.63
2022-09-15T15:26:50.800Z,100816.94
2022-09-15T15:29:41.162Z,100823.16
2022-09-15T15:32:20.766Z,100823.91
2022-09-15T15:35:01.282Z,100823.31
2022-09-15T15:37:32.685Z,100812.75
2022-09-15T15:40:07.104Z,100818.56
2022-09-15T15:42:35.245Z,100823.72
2022-09-15T15:45:25.526Z,100822.94
2022-09-15T15:47:53.404Z,100823.91
2022-09-15T15:50:25.407Z,100827.69
2022-09-15T15:52:53.084Z,100812.66
2022-09-15T15:55:28.830Z,100823.41
2022-09-15T15:57:56.170Z,100821.88
2022-09-15T16:00:36.603Z,100820.53
2022-09-15T16:03:05.354Z,100828.72
2022-09-15T16:05:33.879Z,100825.50
2022-09-15T16:08:11.231Z,100828.16
2022-09-15T16:10:48.442Z,100821.28
2022-09-15T16:13:19.955Z,100826.72
2022-09-15T16:15:48.016Z,100826.91
2022-09-15T16:18:15.629Z,100821.66
2022-09-15T16:20:43.319Z,100821.16
2022-09-15T16:23:18.033Z,100822.13
2022-09-15T16:25:55.229Z,100812.78
2022-09-15T16:28:22.272Z,100823.78
2022-09-15T16:30:49.991Z,100825.69
2022-09-15T16:33:19.459Z,100830.00
2022-09-15T16:35:53.040Z,100831.88
2022-09-15T16:38:21.365Z,100839.88
2022-09-15T16:40:51.120Z,100834.81
2022-09-15T16:43:23.005Z,100837.66
2022-09-15T16:45:54.159Z,100835.25
2022-09-15T16:48:21.544Z,100836.47
2022-09-15T16:51:16.884Z,100840.44
2022-09-15T16:53:39.438Z,100855.75
2022-09-15T16:56:11.181Z,100848.03
2022-09-15T16:58:40.441Z,100853.69
2022-09-15T17:01:15.626Z,100848.53
2022-09-15T17:03:43.374Z,100846.97
2022-09-15T17:06:14.977Z,100848.06
2022-09-15T17:08:48.066Z,100843.91
2022-09-15T17:11:19.689Z,100838.72
2022-09-15T17:13:48.101Z,100845.19
2022-09-15T17:16:21.548Z,100848.97
2022-09-15T17:18:49.671Z,100843.00
2022-09-15T17:21:18.271Z,100843.22
2022-09-15T17:23:49.194Z,100846.03
2022-09-15T17:26:23.965Z,100845.34
2022-09-15T17:28:52.958Z,100848.34
2022-09-15T17:31:23.575Z,100844.13
2022-09-15T17:33:53.222Z,100856.91
2022-09-15T17:36:20.280Z,100853.91
2022-09-15T17:38:48.865Z,100857.75
2022-09-15T17:41:19.566Z,100860.81
2022-09-15T17:43:47.530Z,100861.38
2022-09-15T17:46:15.149Z,100863.66
2022-09-15T17:48:42.295Z,100861.53
2022-09-15T17:51:17.094Z,100856.69
2022-09-15T17:53:46.389Z,100847.56
2022-09-15T17:56:13.691Z,100856.94
2022-09-15T17:58:41.415Z,100864.44
2022-09-15T18:01:13.261Z,100866.69
2022-09-15T18:03:43.222Z,100873.25
2022-09-15T18:06:11.375Z,100874.50
2022-09-15T18:08:38.444Z,100875.78
2022-09-15T18:11:07.002Z,100874.38
2022-09-15T18:13:35.188Z,100885.38
2022-09-15T18:16:11.322Z,100876.81
2022-09-15T18:18:40.257Z,100895.78
2022-09-15T18:21:11.773Z,100889.03
2022-09-15T18:23:39.141Z,100890.19
2022-09-15T18:26:06.353Z,100891.28
2022-09-15T18:28:33.399Z,100895.09
2022-09-15T18:31:00.388Z,100892.00
2022-09-15T18:33:27.429Z,100895.81
2022-09-15T18:35:58.981Z,100901.41
2022-09-15T18:38:27.542Z,100909.59
2022-09-15T18:40:57.025Z,100907.25
2022-09-15T18:43:27.262Z,100902.19
2022-09-15T18:46:01.170Z,100906.94
2022-09-15T18:48:29.280Z,100908.06
2022-09-15T18:50:56.783Z,100908.31
2022-09-15T18:53:24.583Z,100919.91
2022-09-15T18:55:51.727Z,100911.25
2022-09-15T18:58:19.796Z,100921.88
2022-09-15T19:00:49.051Z,100928.19
2022-09-15T19:03:16.012Z,100927.34
2022-09-15T19:05:45.950Z,100930.19
2022-09-15T19:08:14.004Z,100925.09
2022-09-15T19:10:43.806Z,100929.66
2022-09-15T19:13:15.558Z,100931.63
2022-09-15T19:15:44.034Z,100929.16
2022-09-15T19:18:11.259Z,100932.00
2022-09-15T19:20:38.351Z,100938.34
2022-09-15T19:23:05.475Z,100938.41
2022-09-15T19:25:32.814Z,100935.03
2022-09-15T19:27:59.772Z,100935.97
2022-09-15T19:30:27.156Z,100937.69
2022-09-15T19:32:54.380Z,100946.34
2022-09-15T19:35:21.572Z,100953.28
2022-09-15T19:37:48.859Z,100957.50
2022-09-15T19:40:18.011Z,100959.09
2022-09-15T19:42:45.657Z,100951.97
2022-09-15T19:45:13.707Z,100959.72
2022-09-15T19:47:41.685Z,100956.06
2022-09-15T19:50:12.024Z,100956.88
2022-09-15T19:52:40.375Z,100951.56
2022-09-15T19:55:09.800Z,100948.72
2022-09-15T19:57:41.777Z,100951.44
2022-09-15T20:00:12.658Z,100955.88
2022-09-15T20:02:40.247Z,100952.31
2022-09-15T20:07:53.531Z,100962.91
2022-09-15T20:10:20.572Z,100959.34
2022-09-15T20:12:47.804Z,100954.84
2022-09-15T20:15:16.343Z,100956.47
2022-09-15T20:17:43.576Z,100948.47
2022-09-15T20:20:11.782Z,100952.00
2022-09-15T20:22:38.848Z,100952.84
2022-09-15T20:25:06.235Z,100956.47
2022-09-15T20:27:33.679Z,100954.03
2022-09-15T20:30:00.642Z,100944.47
2022-09-15T20:32:29.276Z,100953.53
2022-09-15T20:34:56.247Z,100953.72
2022-09-15T20:37:23.304Z,100968.91
2022-09-15T20:39:51.360Z,100969.94
2022-09-15T20:42:18.798Z,100965.72
2022-09-15T20:44:45.854Z,100971.13
2022-09-15T20:47:12.927Z,100973.88
2022-09-15T20:49:40.025Z,100972.22
2022-09-15T20:52:09.005Z,100980.25
2022-09-15T20:54:36.067Z,100979.66
2022-09-15T20:57:03.148Z,100981.59
2022-09-15T20:59:30.127Z,100984.44
2022-09-15T21:01:57.234Z,100985.66
2022-09-15T21:04:24.392Z,100985.97
2022-09-15T21:06:51.450Z,100979.06
2022-09-15T21:09:18.652Z,100981.06
2022-09-15T21:11:48.176Z,100984.81
2022-09-15T21:14:17.193Z,100987.72
2022-09-15T21:16:44.603Z,100984.25
2022-09-15T21:19:14.464Z,100985.13
2022-09-15T21:21:41.481Z,100986.03
2022-09-15T21:24:09.916Z,100992.19
2022-09-15T21:27:00.954Z,100987.78
2022-09-15T21:29:29.094Z,100994.78
2022-09-15T21:31:56.332Z,100985.00
2022-09-15T21:34:24.097Z,100989.50
2022-09-15T21:36:53.491Z,100989.59
2022-09-15T21:39:20.879Z,100999.38
2022-09-15T21:41:47.848Z,100995.88
2022-09-15T21:44:15.152Z,101002.19
2022-09-15T21:46:42.583Z,101002.38
2022-09-15T21:49:09.556Z,100998.97
2022-09-15T21:51:36.654Z,101005.25
2022-09-15T21:54:03.747Z,101002.63
2022-09-15T21:56:31.239Z,101006.25
2022-09-15T21:58:58.554Z,101005.38
2022-09-15T22:01:30.656Z,101001.88
2022-09-15T22:04:04.827Z,101008.91
2022-09-15T22:06:35.884Z,100995.75
2022-09-15T22:09:14.436Z,100994.81
2022-09-15T22:11:42.223Z,100998.25
2022-09-15T22:14:10.397Z,100999.81
2022-09-15T22:16:40.126Z,101002.25
2022-09-15T22:19:09.769Z,101002.13
2022-09-15T22:21:41.441Z,100999.38
2022-09-15T22:24:13.759Z,100997.44
2022-09-15T22:26:42.873Z,100999.19
2022-09-15T22:29:15.909Z,100996.56
2022-09-15T22:31:43.078Z,100992.94
2022-09-15T22:34:10.429Z,100989.38
2022-09-15T22:36:38.063Z,100989.25
2022-09-15T22:39:06.320Z,100995.28
2022-09-15T22:41:37.471Z,100983.72
2022-09-15T22:44:06.624Z,100995.28
2022-09-15T22:46:34.707Z,100987.34
2022-09-15T22:49:02.226Z,100989.19
2022-09-15T22:51:33.022Z,100990.09
2022-09-15T22:54:02.897Z,100993.81
2022-09-15T22:56:30.914Z,100994.91
2022-09-15T22:59:00.298Z,100992.44
2022-09-15T23:01:30.779Z,100990.81
2022-09-15T23:04:02.549Z,100992.78
2022-09-15T23:06:33.885Z,100995.59
2022-09-15T23:09:07.538Z,100989.47
2022-09-15T23:11:39.775Z,100989.50
2022-09-15T23:14:14.318Z,100986.03
2022-09-15T23:16:43.046Z,100986.94
2022-09-15T23:19:13.652Z,100977.25
2022-09-15T23:21:40.750Z,100979.91
2022-09-15T23:24:08.726Z,100981.75
2022-09-15T23:26:35.782Z,100974.75
2022-09-15T23:29:02.839Z,100966.84
2022-09-15T23:31:33.049Z,100971.16
2022-09-15T23:34:00.128Z,100973.81
2022-09-15T23:36:27.080Z,100965.88
2022-09-15T23:38:54.164Z,100969.31
2022-09-15T23:41:21.533Z,100965.69
2022-09-15T23:43:49.474Z,100959.34
2022-09-15T23:46:16.854Z,100964.59
2022-09-15T23:48:45.021Z,100961.03
2022-09-15T23:51:12.095Z,100963.59
2022-09-15T23:53:40.124Z,100960.97
2022-09-15T23:56:07.773Z,100959.22
2022-09-15T23:58:34.792Z,100961.88
